sensor_id;sensor_type;location;lat;lon;timestamp;temperature;humidity
39519;DHT22;25200;53.394;10.414;2023-07-29T00:00:37;20.10;78.40
39519;DHT22;25200;53.394;10.414;2023-07-29T00:03:03;20.20;78.50
39519;DHT22;25200;53.394;10.414;2023-07-29T00:05:29;20.10;78.60
39519;DHT22;25200;53.394;10.414;2023-07-29T00:07:55;20.10;78.50
39519;DHT22;25200;53.394;10.414;2023-07-29T00:10:20;20.10;78.70
39519;DHT22;25200;53.394;10.414;2023-07-29T00:12:46;20.00;78.50
39519;DHT22;25200;53.394;10.414;2023-07-29T00:15:11;20.00;78.60
39519;DHT22;25200;53.394;10.414;2023-07-29T00:17:37;20.00;78.60
39519;DHT22;25200;53.394;10.414;2023-07-29T00:20:03;19.90;78.80
39519;DHT22;25200;53.394;10.414;2023-07-29T00:22:30;19.90;78.70
39519;DHT22;25200;53.394;10.414;2023-07-29T00:24:56;19.90;78.80
39519;DHT22;25200;53.394;10.414;2023-07-29T00:27:23;19.80;78.70
39519;DHT22;25200;53.394;10.414;2023-07-29T00:29:49;19.80;78.70
39519;DHT22;25200;53.394;10.414;2023-07-29T00:32:15;19.80;78.80
39519;DHT22;25200;53.394;10.414;2023-07-29T00:34:40;19.70;78.80
39519;DHT22;25200;53.394;10.414;2023-07-29T00:37:06;19.70;78.90
39519;DHT22;25200;53.394;10.414;2023-07-29T00:39:32;19.70;78.80
39519;DHT22;25200;53.394;10.414;2023-07-29T00:41:58;19.60;78.90
39519;DHT22;25200;53.394;10.414;2023-07-29T00:44:24;19.60;78.80
39519;DHT22;25200;53.394;10.414;2023-07-29T00:46:53;19.60;78.90
39519;DHT22;25200;53.394;10.414;2023-07-29T00:49:21;19.60;78.90
39519;DHT22;25200;53.394;10.414;2023-07-29T00:51:47;19.50;78.90
39519;DHT22;25200;53.394;10.414;2023-07-29T00:54:13;19.50;79.10
39519;DHT22;25200;53.394;10.414;2023-07-29T00:56:39;19.50;79.10
39519;DHT22;25200;53.394;10.414;2023-07-29T00:59:05;19.40;79.00
39519;DHT22;25200;53.394;10.414;2023-07-29T01:01:31;19.40;79.10
39519;DHT22;25200;53.394;10.414;2023-07-29T01:03:57;19.40;79.10
39519;DHT22;25200;53.394;10.414;2023-07-29T01:14:18;19.30;79.40
39519;DHT22;25200;53.394;10.414;2023-07-29T01:16:56;19.20;79.20
39519;DHT22;25200;53.394;10.414;2023-07-29T01:21:56;19.20;79.50
39519;DHT22;25200;53.394;10.414;2023-07-29T01:24:22;19.20;79.40
39519;DHT22;25200;53.394;10.414;2023-07-29T01:26:48;19.20;79.30
39519;DHT22;25200;53.394;10.414;2023-07-29T01:29:14;19.20;79.60
39519;DHT22;25200;53.394;10.414;2023-07-29T01:31:43;19.20;79.60
39519;DHT22;25200;53.394;10.414;2023-07-29T01:34:17;19.20;79.50
39519;DHT22;25200;53.394;10.414;2023-07-29T01:36:45;19.10;79.40
39519;DHT22;25200;53.394;10.414;2023-07-29T01:39:12;19.10;79.50
39519;DHT22;25200;53.394;10.414;2023-07-29T01:41:40;19.10;79.70
39519;DHT22;25200;53.394;10.414;2023-07-29T01:44:06;19.10;79.50
39519;DHT22;25200;53.394;10.414;2023-07-29T01:46:36;19.10;79.80
39519;DHT22;25200;53.394;10.414;2023-07-29T01:49:02;19.20;79.60
39519;DHT22;25200;53.394;10.414;2023-07-29T01:51:28;19.10;79.80
39519;DHT22;25200;53.394;10.414;2023-07-29T01:53:53;19.20;79.90
39519;DHT22;25200;53.394;10.414;2023-07-29T01:56:21;19.20;79.90
39519;DHT22;25200;53.394;10.414;2023-07-29T01:58:46;19.20;79.90
39519;DHT22;25200;53.394;10.414;2023-07-29T02:01:12;19.20;79.80
39519;DHT22;25200;53.394;10.414;2023-07-29T02:03:38;19.20;79.90
39519;DHT22;25200;53.394;10.414;2023-07-29T02:06:04;19.20;79.90
39519;DHT22;25200;53.394;10.414;2023-07-29T02:08:30;19.20;79.90
39519;DHT22;25200;53.394;10.414;2023-07-29T02:10:55;19.20;80.20
39519;DHT22;25200;53.394;10.414;2023-07-29T02:13:21;19.20;80.20
39519;DHT22;25200;53.394;10.414;2023-07-29T02:15:46;19.20;79.90
39519;DHT22;25200;53.394;10.414;2023-07-29T02:18:12;19.20;80.00
39519;DHT22;25200;53.394;10.414;2023-07-29T02:20:38;19.20;80.20
39519;DHT22;25200;53.394;10.414;2023-07-29T02:23:03;19.30;79.90
39519;DHT22;25200;53.394;10.414;2023-07-29T02:25:30;19.30;80.20
39519;DHT22;25200;53.394;10.414;2023-07-29T02:27:55;19.30;80.00
39519;DHT22;25200;53.394;10.414;2023-07-29T02:30:21;19.30;80.20
39519;DHT22;25200;53.394;10.414;2023-07-29T02:32:47;19.30;80.10
39519;DHT22;25200;53.394;10.414;2023-07-29T02:35:12;19.30;80.20
39519;DHT22;25200;53.394;10.414;2023-07-29T02:37:38;19.30;80.10
39519;DHT22;25200;53.394;10.414;2023-07-29T02:40:04;19.30;79.90
39519;DHT22;25200;53.394;10.414;2023-07-29T02:42:31;19.30;80.10
39519;DHT22;25200;53.394;10.414;2023-07-29T02:44:57;19.20;79.90
39519;DHT22;25200;53.394;10.414;2023-07-29T02:47:22;19.20;80.00
39519;DHT22;25200;53.394;10.414;2023-07-29T02:49:48;19.20;80.40
39519;DHT22;25200;53.394;10.414;2023-07-29T02:52:13;19.20;80.10
39519;DHT22;25200;53.394;10.414;2023-07-29T02:54:39;19.20;80.00
39519;DHT22;25200;53.394;10.414;2023-07-29T02:57:05;19.20;80.10
39519;DHT22;25200;53.394;10.414;2023-07-29T02:59:30;19.20;79.90
39519;DHT22;25200;53.394;10.414;2023-07-29T03:01:57;19.20;80.00
39519;DHT22;25200;53.394;10.414;2023-07-29T03:04:22;19.20;80.00
39519;DHT22;25200;53.394;10.414;2023-07-29T03:06:48;19.20;80.00
39519;DHT22;25200;53.394;10.414;2023-07-29T03:09:14;19.20;79.90
39519;DHT22;25200;53.394;10.414;2023-07-29T03:11:40;19.20;79.90
39519;DHT22;25200;53.394;10.414;2023-07-29T03:14:05;19.20;79.90
39519;DHT22;25200;53.394;10.414;2023-07-29T03:16:31;19.20;79.90
39519;DHT22;25200;53.394;10.414;2023-07-29T03:18:57;19.20;79.90
39519;DHT22;25200;53.394;10.414;2023-07-29T03:21:23;19.20;80.00
39519;DHT22;25200;53.394;10.414;2023-07-29T03:23:48;19.20;79.90
39519;DHT22;25200;53.394;10.414;2023-07-29T03:26:14;19.20;79.90
39519;DHT22;25200;53.394;10.414;2023-07-29T03:28:41;19.20;79.90
39519;DHT22;25200;53.394;10.414;2023-07-29T03:31:08;19.20;79.90
39519;DHT22;25200;53.394;10.414;2023-07-29T03:33:34;19.20;79.80
39519;DHT22;25200;53.394;10.414;2023-07-29T03:35:59;19.10;79.80
39519;DHT22;25200;53.394;10.414;2023-07-29T03:38:25;19.10;79.80
39519;DHT22;25200;53.394;10.414;2023-07-29T03:40:51;19.10;79.80
39519;DHT22;25200;53.394;10.414;2023-07-29T03:43:17;19.10;80.20
39519;DHT22;25200;53.394;10.414;2023-07-29T03:45:43;19.10;80.20
39519;DHT22;25200;53.394;10.414;2023-07-29T03:48:08;19.00;80.10
39519;DHT22;25200;53.394;10.414;2023-07-29T03:50:35;19.00;80.00
39519;DHT22;25200;53.394;10.414;2023-07-29T03:53:04;19.00;80.10
39519;DHT22;25200;53.394;10.414;2023-07-29T03:55:31;19.00;80.20
39519;DHT22;25200;53.394;10.414;2023-07-29T03:57:58;19.00;80.10
39519;DHT22;25200;53.394;10.414;2023-07-29T04:00:23;19.00;80.00
39519;DHT22;25200;53.394;10.414;2023-07-29T04:02:49;18.90;80.10
39519;DHT22;25200;53.394;10.414;2023-07-29T04:05:15;18.90;80.10
39519;DHT22;25200;53.394;10.414;2023-07-29T04:07:41;18.90;80.20
39519;DHT22;25200;53.394;10.414;2023-07-29T04:10:07;18.90;80.20
39519;DHT22;25200;53.394;10.414;2023-07-29T04:12:33;18.90;80.20
39519;DHT22;25200;53.394;10.414;2023-07-29T04:14:58;18.90;80.30
39519;DHT22;25200;53.394;10.414;2023-07-29T04:17:24;18.90;80.40
39519;DHT22;25200;53.394;10.414;2023-07-29T04:19:50;18.90;80.40
39519;DHT22;25200;53.394;10.414;2023-07-29T04:22:16;18.90;80.20
39519;DHT22;25200;53.394;10.414;2023-07-29T04:24:42;18.90;80.40
39519;DHT22;25200;53.394;10.414;2023-07-29T04:27:07;18.90;80.50
39519;DHT22;25200;53.394;10.414;2023-07-29T04:29:33;18.90;80.40
39519;DHT22;25200;53.394;10.414;2023-07-29T04:32:01;18.90;80.20
39519;DHT22;25200;53.394;10.414;2023-07-29T04:34:27;18.90;80.30
39519;DHT22;25200;53.394;10.414;2023-07-29T04:36:53;18.90;80.30
39519;DHT22;25200;53.394;10.414;2023-07-29T04:39:18;18.90;80.20
39519;DHT22;25200;53.394;10.414;2023-07-29T04:41:44;19.00;80.40
39519;DHT22;25200;53.394;10.414;2023-07-29T04:44:09;19.00;80.90
39519;DHT22;25200;53.394;10.414;2023-07-29T04:46:36;19.00;80.30
39519;DHT22;25200;53.394;10.414;2023-07-29T04:49:02;19.10;80.70
39519;DHT22;25200;53.394;10.414;2023-07-29T04:51:28;19.10;80.30
39519;DHT22;25200;53.394;10.414;2023-07-29T04:53:54;19.10;80.30
39519;DHT22;25200;53.394;10.414;2023-07-29T04:56:19;19.10;80.30
39519;DHT22;25200;53.394;10.414;2023-07-29T04:58:45;19.20;80.30
39519;DHT22;25200;53.394;10.414;2023-07-29T05:01:11;19.20;80.40
39519;DHT22;25200;53.394;10.414;2023-07-29T05:03:36;19.20;80.30
39519;DHT22;25200;53.394;10.414;2023-07-29T05:06:03;19.20;80.30
39519;DHT22;25200;53.394;10.414;2023-07-29T05:08:29;19.20;80.30
39519;DHT22;25200;53.394;10.414;2023-07-29T05:10:55;19.20;80.20
39519;DHT22;25200;53.394;10.414;2023-07-29T05:13:22;19.30;80.20
39519;DHT22;25200;53.394;10.414;2023-07-29T05:15:48;19.30;80.10
39519;DHT22;25200;53.394;10.414;2023-07-29T05:18:14;19.40;80.20
39519;DHT22;25200;53.394;10.414;2023-07-29T05:20:40;19.40;80.20
39519;DHT22;25200;53.394;10.414;2023-07-29T05:23:06;19.40;80.10
39519;DHT22;25200;53.394;10.414;2023-07-29T05:25:32;19.40;80.00
39519;DHT22;25200;53.394;10.414;2023-07-29T05:28:00;19.50;80.10
39519;DHT22;25200;53.394;10.414;2023-07-29T05:30:26;19.50;80.20
39519;DHT22;25200;53.394;10.414;2023-07-29T05:32:52;19.60;80.10
39519;DHT22;25200;53.394;10.414;2023-07-29T05:35:18;19.60;80.20
39519;DHT22;25200;53.394;10.414;2023-07-29T05:37:43;19.60;80.20
39519;DHT22;25200;53.394;10.414;2023-07-29T05:40:09;19.60;80.10
39519;DHT22;25200;53.394;10.414;2023-07-29T05:42:35;19.60;80.10
39519;DHT22;25200;53.394;10.414;2023-07-29T05:45:01;19.70;80.00
39519;DHT22;25200;53.394;10.414;2023-07-29T05:47:27;19.70;79.90
39519;DHT22;25200;53.394;10.414;2023-07-29T05:49:52;19.70;80.20
39519;DHT22;25200;53.394;10.414;2023-07-29T05:52:18;19.80;80.10
39519;DHT22;25200;53.394;10.414;2023-07-29T05:54:44;19.80;80.10
39519;DHT22;25200;53.394;10.414;2023-07-29T05:57:11;19.80;80.00
39519;DHT22;25200;53.394;10.414;2023-07-29T05:59:37;19.90;80.20
39519;DHT22;25200;53.394;10.414;2023-07-29T06:02:03;19.90;80.00
39519;DHT22;25200;53.394;10.414;2023-07-29T06:04:28;19.90;80.00
39519;DHT22;25200;53.394;10.414;2023-07-29T06:06:54;20.00;80.20
39519;DHT22;25200;53.394;10.414;2023-07-29T06:09:21;20.00;80.00
39519;DHT22;25200;53.394;10.414;2023-07-29T06:11:47;20.10;80.20
39519;DHT22;25200;53.394;10.414;2023-07-29T06:14:13;20.10;80.00
39519;DHT22;25200;53.394;10.414;2023-07-29T06:16:38;20.10;80.10
39519;DHT22;25200;53.394;10.414;2023-07-29T06:19:04;20.20;80.20
39519;DHT22;25200;53.394;10.414;2023-07-29T06:21:30;20.20;80.20
39519;DHT22;25200;53.394;10.414;2023-07-29T06:23:56;20.30;80.30
39519;DHT22;25200;53.394;10.414;2023-07-29T06:26:22;20.40;80.30
39519;DHT22;25200;53.394;10.414;2023-07-29T06:28:47;20.40;80.20
39519;DHT22;25200;53.394;10.414;2023-07-29T06:31:13;20.50;80.50
39519;DHT22;25200;53.394;10.414;2023-07-29T06:33:39;20.60;80.30
39519;DHT22;25200;53.394;10.414;2023-07-29T06:36:04;20.70;80.20
39519;DHT22;25200;53.394;10.414;2023-07-29T06:38:30;20.80;80.30
39519;DHT22;25200;53.394;10.414;2023-07-29T06:40:56;20.80;80.20
39519;DHT22;25200;53.394;10.414;2023-07-29T06:43:22;20.80;80.10
39519;DHT22;25200;53.394;10.414;2023-07-29T06:45:48;20.90;80.00
39519;DHT22;25200;53.394;10.414;2023-07-29T06:48:13;21.00;80.10
39519;DHT22;25200;53.394;10.414;2023-07-29T06:50:39;21.00;80.10
39519;DHT22;25200;53.394;10.414;2023-07-29T06:53:08;21.10;80.30
39519;DHT22;25200;53.394;10.414;2023-07-29T06:55:34;21.20;80.30
39519;DHT22;25200;53.394;10.414;2023-07-29T06:58:00;21.20;80.30
39519;DHT22;25200;53.394;10.414;2023-07-29T07:00:25;21.30;80.20
39519;DHT22;25200;53.394;10.414;2023-07-29T07:02:51;21.40;80.30
39519;DHT22;25200;53.394;10.414;2023-07-29T07:05:16;21.40;80.10
39519;DHT22;25200;53.394;10.414;2023-07-29T07:07:42;21.40;80.20
39519;DHT22;25200;53.394;10.414;2023-07-29T07:10:08;21.50;80.30
39519;DHT22;25200;53.394;10.414;2023-07-29T07:12:34;21.50;80.40
39519;DHT22;25200;53.394;10.414;2023-07-29T07:15:00;21.60;80.70
39519;DHT22;25200;53.394;10.414;2023-07-29T07:17:26;21.70;80.80
39519;DHT22;25200;53.394;10.414;2023-07-29T07:19:51;21.90;81.10
39519;DHT22;25200;53.394;10.414;2023-07-29T07:22:17;22.00;80.90
39519;DHT22;25200;53.394;10.414;2023-07-29T07:24:43;22.10;80.70
39519;DHT22;25200;53.394;10.414;2023-07-29T07:27:08;22.10;80.60
39519;DHT22;25200;53.394;10.414;2023-07-29T07:29:34;22.20;80.70
39519;DHT22;25200;53.394;10.414;2023-07-29T07:32:00;22.30;80.50
39519;DHT22;25200;53.394;10.414;2023-07-29T07:34:25;22.40;80.60
39519;DHT22;25200;53.394;10.414;2023-07-29T07:36:51;22.40;80.30
39519;DHT22;25200;53.394;10.414;2023-07-29T07:39:17;22.40;80.30
39519;DHT22;25200;53.394;10.414;2023-07-29T07:41:43;22.40;80.10
39519;DHT22;25200;53.394;10.414;2023-07-29T07:44:09;22.30;80.00
39519;DHT22;25200;53.394;10.414;2023-07-29T07:46:34;22.30;80.10
39519;DHT22;25200;53.394;10.414;2023-07-29T07:49:00;22.20;80.00
39519;DHT22;25200;53.394;10.414;2023-07-29T07:51:26;22.20;80.20
39519;DHT22;25200;53.394;10.414;2023-07-29T07:53:51;22.20;80.20
39519;DHT22;25200;53.394;10.414;2023-07-29T07:56:17;22.20;80.30
39519;DHT22;25200;53.394;10.414;2023-07-29T07:58:42;22.20;80.50
39519;DHT22;25200;53.394;10.414;2023-07-29T08:01:09;22.20;80.40
39519;DHT22;25200;53.394;10.414;2023-07-29T08:03:37;22.20;80.60
39519;DHT22;25200;53.394;10.414;2023-07-29T08:06:04;22.30;80.70
39519;DHT22;25200;53.394;10.414;2023-07-29T08:08:30;22.40;80.70
39519;DHT22;25200;53.394;10.414;2023-07-29T08:10:57;22.40;80.70
39519;DHT22;25200;53.394;10.414;2023-07-29T08:13:23;22.50;80.70
39519;DHT22;25200;53.394;10.414;2023-07-29T08:15:51;22.60;80.80
39519;DHT22;25200;53.394;10.414;2023-07-29T08:18:17;22.70;80.60
39519;DHT22;25200;53.394;10.414;2023-07-29T08:20:56;22.70;80.40
39519;DHT22;25200;53.394;10.414;2023-07-29T08:23:32;22.80;80.40
39519;DHT22;25200;53.394;10.414;2023-07-29T08:26:00;22.80;80.50
39519;DHT22;25200;53.394;10.414;2023-07-29T08:28:28;23.00;80.70
39519;DHT22;25200;53.394;10.414;2023-07-29T08:30:54;23.00;80.70
39519;DHT22;25200;53.394;10.414;2023-07-29T08:33:19;23.20;80.50
39519;DHT22;25200;53.394;10.414;2023-07-29T08:35:45;23.30;80.40
39519;DHT22;25200;53.394;10.414;2023-07-29T08:38:11;23.40;80.40
39519;DHT22;25200;53.394;10.414;2023-07-29T08:40:41;23.40;80.30
39519;DHT22;25200;53.394;10.414;2023-07-29T08:43:07;23.40;79.90
39519;DHT22;25200;53.394;10.414;2023-07-29T08:45:35;23.40;79.80
39519;DHT22;25200;53.394;10.414;2023-07-29T08:48:10;23.40;79.70
39519;DHT22;25200;53.394;10.414;2023-07-29T08:50:36;23.30;79.40
39519;DHT22;25200;53.394;10.414;2023-07-29T08:53:04;23.30;79.70
39519;DHT22;25200;53.394;10.414;2023-07-29T08:55:31;23.30;79.80
39519;DHT22;25200;53.394;10.414;2023-07-29T08:57:58;23.20;79.80
39519;DHT22;25200;53.394;10.414;2023-07-29T09:00:23;23.30;79.80
39519;DHT22;25200;53.394;10.414;2023-07-29T09:02:49;23.20;79.80
39519;DHT22;25200;53.394;10.414;2023-07-29T09:05:16;23.20;80.00
39519;DHT22;25200;53.394;10.414;2023-07-29T09:07:42;23.20;80.00
39519;DHT22;25200;53.394;10.414;2023-07-29T09:10:09;23.30;80.10
39519;DHT22;25200;53.394;10.414;2023-07-29T09:12:38;23.30;80.40
39519;DHT22;25200;53.394;10.414;2023-07-29T09:15:04;23.30;80.00
39519;DHT22;25200;53.394;10.414;2023-07-29T09:17:34;23.30;79.90
39519;DHT22;25200;53.394;10.414;2023-07-29T09:20:00;23.20;79.80
39519;DHT22;25200;53.394;10.414;2023-07-29T09:22:27;23.20;79.50
39519;DHT22;25200;53.394;10.414;2023-07-29T09:24:53;23.10;79.40
39519;DHT22;25200;53.394;10.414;2023-07-29T09:27:28;23.00;79.60
39519;DHT22;25200;53.394;10.414;2023-07-29T09:29:57;22.90;79.70
39519;DHT22;25200;53.394;10.414;2023-07-29T09:32:25;22.80;79.90
39519;DHT22;25200;53.394;10.414;2023-07-29T09:34:51;22.80;80.20
39519;DHT22;25200;53.394;10.414;2023-07-29T09:37:18;22.80;80.10
39519;DHT22;25200;53.394;10.414;2023-07-29T09:39:46;22.80;80.20
39519;DHT22;25200;53.394;10.414;2023-07-29T09:42:18;22.80;80.20
39519;DHT22;25200;53.394;10.414;2023-07-29T09:44:44;22.80;80.30
39519;DHT22;25200;53.394;10.414;2023-07-29T09:47:09;22.90;80.30
39519;DHT22;25200;53.394;10.414;2023-07-29T09:49:43;23.00;80.60
39519;DHT22;25200;53.394;10.414;2023-07-29T09:52:09;23.10;80.50
39519;DHT22;25200;53.394;10.414;2023-07-29T09:54:36;23.20;80.50
39519;DHT22;25200;53.394;10.414;2023-07-29T09:57:02;23.40;80.20
39519;DHT22;25200;53.394;10.414;2023-07-29T09:59:28;23.50;80.20
39519;DHT22;25200;53.394;10.414;2023-07-29T10:01:59;23.60;80.00
39519;DHT22;25200;53.394;10.414;2023-07-29T10:04:25;23.80;79.90
39519;DHT22;25200;53.394;10.414;2023-07-29T10:06:52;23.90;79.60
39519;DHT22;25200;53.394;10.414;2023-07-29T10:09:19;24.00;79.40
39519;DHT22;25200;53.394;10.414;2023-07-29T10:11:45;24.00;79.10
39519;DHT22;25200;53.394;10.414;2023-07-29T10:14:11;24.10;79.20
39519;DHT22;25200;53.394;10.414;2023-07-29T10:16:37;24.10;78.90
39519;DHT22;25200;53.394;10.414;2023-07-29T10:19:04;24.20;78.90
39519;DHT22;25200;53.394;10.414;2023-07-29T10:21:31;24.20;79.00
39519;DHT22;25200;53.394;10.414;2023-07-29T10:24:00;24.30;79.10
39519;DHT22;25200;53.394;10.414;2023-07-29T10:26:28;24.40;78.90
39519;DHT22;25200;53.394;10.414;2023-07-29T10:28:59;24.50;78.60
39519;DHT22;25200;53.394;10.414;2023-07-29T10:31:30;24.60;78.50
39519;DHT22;25200;53.394;10.414;2023-07-29T10:33:56;24.70;78.30
39519;DHT22;25200;53.394;10.414;2023-07-29T10:36:22;24.80;78.50
39519;DHT22;25200;53.394;10.414;2023-07-29T10:38:49;24.90;78.50
39519;DHT22;25200;53.394;10.414;2023-07-29T10:41:15;25.00;77.70
39519;DHT22;25200;53.394;10.414;2023-07-29T10:43:41;25.10;77.30
39519;DHT22;25200;53.394;10.414;2023-07-29T10:46:22;25.10;76.90
39519;DHT22;25200;53.394;10.414;2023-07-29T10:48:54;25.30;77.10
39519;DHT22;25200;53.394;10.414;2023-07-29T10:51:37;25.40;77.20
39519;DHT22;25200;53.394;10.414;2023-07-29T10:56:36;25.60;75.60
39519;DHT22;25200;53.394;10.414;2023-07-29T11:01:56;25.50;75.20
39519;DHT22;25200;53.394;10.414;2023-07-29T11:12:39;25.80;75.80
39519;DHT22;25200;53.394;10.414;2023-07-29T11:15:15;25.90;75.60
39519;DHT22;25200;53.394;10.414;2023-07-29T11:17:51;26.00;75.40
39519;DHT22;25200;53.394;10.414;2023-07-29T11:20:19;26.10;74.90
39519;DHT22;25200;53.394;10.414;2023-07-29T11:22:45;26.20;75.40
39519;DHT22;25200;53.394;10.414;2023-07-29T11:25:13;26.30;74.80
39519;DHT22;25200;53.394;10.414;2023-07-29T11:27:39;26.30;75.10
39519;DHT22;25200;53.394;10.414;2023-07-29T11:30:08;26.40;74.70
39519;DHT22;25200;53.394;10.414;2023-07-29T11:32:35;26.50;75.00
39519;DHT22;25200;53.394;10.414;2023-07-29T11:35:07;26.60;75.00
39519;DHT22;25200;53.394;10.414;2023-07-29T11:37:34;26.70;74.70
39519;DHT22;25200;53.394;10.414;2023-07-29T11:40:00;26.60;74.60
39519;DHT22;25200;53.394;10.414;2023-07-29T11:42:26;26.50;74.20
39519;DHT22;25200;53.394;10.414;2023-07-29T11:44:55;26.40;73.90
39519;DHT22;25200;53.394;10.414;2023-07-29T11:47:21;26.40;74.20
39519;DHT22;25200;53.394;10.414;2023-07-29T11:49:47;26.40;74.20
39519;DHT22;25200;53.394;10.414;2023-07-29T11:52:13;26.30;73.60
39519;DHT22;25200;53.394;10.414;2023-07-29T11:54:39;26.30;74.20
39519;DHT22;25200;53.394;10.414;2023-07-29T11:57:09;26.20;74.30
39519;DHT22;25200;53.394;10.414;2023-07-29T11:59:36;26.30;74.60
39519;DHT22;25200;53.394;10.414;2023-07-29T12:02:06;26.20;74.20
39519;DHT22;25200;53.394;10.414;2023-07-29T12:04:32;26.20;74.70
39519;DHT22;25200;53.394;10.414;2023-07-29T12:06:58;26.40;74.30
39519;DHT22;25200;53.394;10.414;2023-07-29T12:09:25;26.60;73.90
39519;DHT22;25200;53.394;10.414;2023-07-29T12:11:52;26.70;73.70
39519;DHT22;25200;53.394;10.414;2023-07-29T12:14:18;26.80;73.60
39519;DHT22;25200;53.394;10.414;2023-07-29T12:16:44;27.00;73.80
39519;DHT22;25200;53.394;10.414;2023-07-29T12:19:13;27.30;74.10
39519;DHT22;25200;53.394;10.414;2023-07-29T12:21:43;27.60;71.20
39519;DHT22;25200;53.394;10.414;2023-07-29T12:24:09;27.70;72.80
39519;DHT22;25200;53.394;10.414;2023-07-29T12:26:37;27.80;73.10
39519;DHT22;25200;53.394;10.414;2023-07-29T12:29:13;27.90;73.10
39519;DHT22;25200;53.394;10.414;2023-07-29T12:31:38;28.10;73.50
39519;DHT22;25200;53.394;10.414;2023-07-29T12:34:04;28.30;73.20
39519;DHT22;25200;53.394;10.414;2023-07-29T12:36:44;28.70;73.00
39519;DHT22;25200;53.394;10.414;2023-07-29T12:39:20;28.80;72.20
39519;DHT22;25200;53.394;10.414;2023-07-29T12:41:48;28.60;70.90
39519;DHT22;25200;53.394;10.414;2023-07-29T12:44:13;28.50;72.10
39519;DHT22;25200;53.394;10.414;2023-07-29T12:46:39;28.70;72.00
39519;DHT22;25200;53.394;10.414;2023-07-29T12:49:05;28.80;71.40
39519;DHT22;25200;53.394;10.414;2023-07-29T12:51:31;29.00;72.00
39519;DHT22;25200;53.394;10.414;2023-07-29T12:53:57;29.20;71.70
39519;DHT22;25200;53.394;10.414;2023-07-29T12:56:23;29.30;71.60
39519;DHT22;25200;53.394;10.414;2023-07-29T12:58:49;29.50;72.20
39519;DHT22;25200;53.394;10.414;2023-07-29T13:01:15;29.50;71.20
39519;DHT22;25200;53.394;10.414;2023-07-29T13:03:47;29.50;70.90
39519;DHT22;25200;53.394;10.414;2023-07-29T13:06:13;29.40;70.70
39519;DHT22;25200;53.394;10.414;2023-07-29T13:08:38;29.30;70.90
39519;DHT22;25200;53.394;10.414;2023-07-29T13:11:04;29.30;71.10
39519;DHT22;25200;53.394;10.414;2023-07-29T13:13:31;29.30;70.80
39519;DHT22;25200;53.394;10.414;2023-07-29T13:15:57;29.30;70.80
39519;DHT22;25200;53.394;10.414;2023-07-29T13:18:23;29.30;69.50
39519;DHT22;25200;53.394;10.414;2023-07-29T13:20:49;29.40;68.80
39519;DHT22;25200;53.394;10.414;2023-07-29T13:23:15;29.30;69.10
39519;DHT22;25200;53.394;10.414;2023-07-29T13:25:41;29.20;68.80
39519;DHT22;25200;53.394;10.414;2023-07-29T13:28:08;29.30;70.00
39519;DHT22;25200;53.394;10.414;2023-07-29T13:30:34;29.30;69.80
39519;DHT22;25200;53.394;10.414;2023-07-29T13:32:59;29.20;69.30
39519;DHT22;25200;53.394;10.414;2023-07-29T13:35:25;29.00;68.70
39519;DHT22;25200;53.394;10.414;2023-07-29T13:37:51;28.90;68.60
39519;DHT22;25200;53.394;10.414;2023-07-29T13:40:16;28.80;69.40
39519;DHT22;25200;53.394;10.414;2023-07-29T13:42:42;28.60;69.40
39519;DHT22;25200;53.394;10.414;2023-07-29T13:45:08;28.60;68.90
39519;DHT22;25200;53.394;10.414;2023-07-29T13:47:34;28.70;69.70
39519;DHT22;25200;53.394;10.414;2023-07-29T13:50:00;28.70;69.60
39519;DHT22;25200;53.394;10.414;2023-07-29T13:52:26;28.80;70.30
39519;DHT22;25200;53.394;10.414;2023-07-29T13:54:51;28.90;70.00
39519;DHT22;25200;53.394;10.414;2023-07-29T13:57:17;29.00;69.50
39519;DHT22;25200;53.394;10.414;2023-07-29T13:59:43;29.20;69.90
39519;DHT22;25200;53.394;10.414;2023-07-29T14:02:08;29.20;69.90
39519;DHT22;25200;53.394;10.414;2023-07-29T14:04:34;29.30;69.50
39519;DHT22;25200;53.394;10.414;2023-07-29T14:07:00;29.30;70.00
39519;DHT22;25200;53.394;10.414;2023-07-29T14:09:26;29.40;69.70
39519;DHT22;25200;53.394;10.414;2023-07-29T14:11:53;29.50;68.70
39519;DHT22;25200;53.394;10.414;2023-07-29T14:14:19;29.50;69.10
39519;DHT22;25200;53.394;10.414;2023-07-29T14:16:44;29.50;68.60
39519;DHT22;25200;53.394;10.414;2023-07-29T14:19:10;29.50;68.90
39519;DHT22;25200;53.394;10.414;2023-07-29T14:21:36;29.50;69.00
39519;DHT22;25200;53.394;10.414;2023-07-29T14:24:01;29.50;68.90
39519;DHT22;25200;53.394;10.414;2023-07-29T14:26:27;29.70;68.60
39519;DHT22;25200;53.394;10.414;2023-07-29T14:28:52;29.80;68.80
39519;DHT22;25200;53.394;10.414;2023-07-29T14:31:18;29.80;68.40
39519;DHT22;25200;53.394;10.414;2023-07-29T14:33:44;29.70;68.20
39519;DHT22;25200;53.394;10.414;2023-07-29T14:36:10;29.70;68.30
39519;DHT22;25200;53.394;10.414;2023-07-29T14:38:36;29.90;68.90
39519;DHT22;25200;53.394;10.414;2023-07-29T14:41:03;30.00;68.70
39519;DHT22;25200;53.394;10.414;2023-07-29T14:43:30;30.10;68.80
39519;DHT22;25200;53.394;10.414;2023-07-29T14:45:55;30.30;69.10
39519;DHT22;25200;53.394;10.414;2023-07-29T14:48:21;30.40;68.90
39519;DHT22;25200;53.394;10.414;2023-07-29T14:50:47;30.50;68.40
39519;DHT22;25200;53.394;10.414;2023-07-29T14:53:13;30.50;68.00
39519;DHT22;25200;53.394;10.414;2023-07-29T14:55:39;30.60;67.10
39519;DHT22;25200;53.394;10.414;2023-07-29T14:58:05;30.50;67.60
39519;DHT22;25200;53.394;10.414;2023-07-29T15:00:30;30.50;66.70
39519;DHT22;25200;53.394;10.414;2023-07-29T15:02:56;30.50;67.60
39519;DHT22;25200;53.394;10.414;2023-07-29T15:05:21;30.50;66.50
39519;DHT22;25200;53.394;10.414;2023-07-29T15:07:47;30.40;66.10
39519;DHT22;25200;53.394;10.414;2023-07-29T15:10:16;30.20;66.00
39519;DHT22;25200;53.394;10.414;2023-07-29T15:12:45;30.10;66.30
39519;DHT22;25200;53.394;10.414;2023-07-29T15:15:11;29.90;66.00
39519;DHT22;25200;53.394;10.414;2023-07-29T15:17:37;29.80;66.30
39519;DHT22;25200;53.394;10.414;2023-07-29T15:20:04;29.50;66.40
39519;DHT22;25200;53.394;10.414;2023-07-29T15:22:30;29.30;65.50
39519;DHT22;25200;53.394;10.414;2023-07-29T15:24:59;29.10;65.70
39519;DHT22;25200;53.394;10.414;2023-07-29T15:27:28;28.90;65.50
39519;DHT22;25200;53.394;10.414;2023-07-29T15:29:54;28.70;65.10
39519;DHT22;25200;53.394;10.414;2023-07-29T15:32:20;28.50;65.90
39519;DHT22;25200;53.394;10.414;2023-07-29T15:34:47;28.40;66.60